Time;durP1;ratioP1;P1;durP2;ratioP2;P2;SDS_P1;SDS_P2;PMS_P1;PMS_P2;Temp;Humidity;BMP_temperature;BMP_pressure;BME280_temperature;BME280_humidity;BME280_pressure;Samples;Min_cycle;Max_cycle;Signal;HPM_P1;HPM_P2
2021/07/28 00:02:23;;;;;;;18.42;11.18;;;;;;;16.05;100.00;93678.66;5092148;28;20576;-77
2021/07/28 00:04:51;;;;;;;16.77;10.15;;;;;;;16.11;100.00;93687.44;5088037;28;20561;-77
2021/07/28 00:07:20;;;;;;;20.98;12.07;;;;;;;16.13;100.00;93680.09;5087014;28;20216;-77
2021/07/28 00:09:46;;;;;;;20.30;11.80;;;;;;;16.15;100.00;93683.28;5095834;28;20194;-78
2021/07/28 00:12:15;;;;;;;19.58;10.90;;;;;;;16.16;100.00;93690.16;5095627;28;20249;-78
2021/07/28 00:14:41;;;;;;;16.40;9.95;;;;;;;16.16;100.00;93684.88;5095371;28;20675;-77
2021/07/28 00:17:11;;;;;;;23.53;13.80;;;;;;;16.19;100.00;93694.97;5094754;28;20441;-77
2021/07/28 00:19:51;;;;;;;22.30;11.48;;;;;;;16.25;100.00;93694.00;5095800;28;20766;-77
2021/07/28 00:25:03;;;;;;;24.05;11.35;;;;;;;16.21;100.00;93692.09;5095776;28;20197;-78
2021/07/28 00:27:30;;;;;;;21.60;11.23;;;;;;;16.24;100.00;93697.69;5095736;28;20205;-79
2021/07/28 00:29:59;;;;;;;21.83;11.45;;;;;;;16.17;100.00;93710.19;5095672;28;20213;-77
2021/07/28 00:32:26;;;;;;;24.55;12.18;;;;;;;16.20;100.00;93704.44;5095455;28;20222;-78
2021/07/28 00:34:52;;;;;;;19.85;11.73;;;;;;;16.28;100.00;93705.91;5095235;28;20623;-78
2021/07/28 00:37:20;;;;;;;20.73;11.07;;;;;;;16.29;100.00;93696.97;5095339;28;20201;-78
2021/07/28 00:39:48;;;;;;;19.70;11.38;;;;;;;16.34;100.00;93698.91;5095284;28;20668;-79
2021/07/28 00:42:17;;;;;;;18.25;10.48;;;;;;;16.33;100.00;93700.72;5095445;28;20204;-78
2021/07/28 00:44:44;;;;;;;23.98;11.93;;;;;;;16.32;100.00;93703.59;5095168;28;20201;-79
2021/07/28 00:47:11;;;;;;;18.58;11.15;;;;;;;16.39;100.00;93704.25;5095268;28;20251;-78
2021/07/28 00:49:37;;;;;;;22.20;12.02;;;;;;;16.37;100.00;93698.41;5095108;28;20202;-77
2021/07/28 00:52:06;;;;;;;20.58;11.27;;;;;;;16.43;100.00;93705.38;5095289;28;20255;-78
2021/07/28 00:54:35;;;;;;;16.77;11.00;;;;;;;16.39;100.00;93701.63;5095107;28;20209;-77
2021/07/28 00:57:01;;;;;;;19.13;11.15;;;;;;;16.40;100.00;93700.56;5094991;28;20680;-78
2021/07/28 00:59:28;;;;;;;17.73;11.48;;;;;;;16.39;100.00;93704.25;5095035;28;20285;-78
2021/07/28 01:01:55;;;;;;;23.08;13.25;;;;;;;16.38;100.00;93702.66;5093962;28;20440;-78
2021/07/28 01:04:22;;;;;;;23.35;11.95;;;;;;;16.31;100.00;93704.63;5094764;28;20206;-80
2021/07/28 01:06:49;;;;;;;22.35;12.60;;;;;;;16.35;100.00;93700.47;5095084;28;20202;-78
2021/07/28 01:09:15;;;;;;;21.10;11.85;;;;;;;16.26;100.00;93697.44;5094861;28;20198;-78
2021/07/28 01:11:43;;;;;;;20.55;11.40;;;;;;;16.31;100.00;93688.84;5094941;28;20194;-79
2021/07/28 01:14:10;;;;;;;20.13;12.07;;;;;;;16.30;100.00;93684.59;5094592;28;20715;-79
2021/07/28 01:16:39;;;;;;;21.90;12.98;;;;;;;16.30;100.00;93689.84;5094647;28;20683;-79
2021/07/28 01:19:10;;;;;;;22.42;12.65;;;;;;;16.23;100.00;93682.91;5094484;28;20201;-78
2021/07/28 01:21:38;;;;;;;20.90;11.88;;;;;;;16.21;100.00;93679.72;5094566;28;20553;-78
2021/07/28 01:24:06;;;;;;;27.88;13.00;;;;;;;16.20;100.00;93678.09;5094500;28;20224;-78
2021/07/28 01:26:34;;;;;;;22.50;12.38;;;;;;;16.15;100.00;93677.22;5094679;28;20202;-78
2021/07/28 01:29:01;;;;;;;19.70;10.95;;;;;;;16.12;100.00;93675.88;5094362;28;20198;-79
2021/07/28 01:31:28;;;;;;;22.63;11.32;;;;;;;16.07;100.00;93665.22;5094180;28;20201;-78
2021/07/28 01:33:55;;;;;;;21.25;11.73;;;;;;;16.00;100.00;93659.31;5094011;28;20595;-80
2021/07/28 01:36:23;;;;;;;24.00;12.68;;;;;;;15.99;100.00;93653.25;5094177;28;20724;-78
2021/07/28 01:38:50;;;;;;;20.73;12.02;;;;;;;15.91;100.00;93654.44;5094471;28;20202;-78
2021/07/28 01:41:19;;;;;;;19.48;11.32;;;;;;;15.82;100.00;93653.22;5094526;28;20646;-79
2021/07/28 01:43:45;;;;;;;19.92;11.38;;;;;;;15.81;100.00;93651.63;5094019;28;20209;-79
2021/07/28 01:46:13;;;;;;;22.83;13.45;;;;;;;15.72;100.00;93658.25;5093790;28;20429;-78
2021/07/28 01:48:39;;;;;;;21.77;12.40;;;;;;;15.67;100.00;93655.53;5094073;28;20198;-79
2021/07/28 01:51:06;;;;;;;19.25;10.20;;;;;;;15.58;100.00;93656.94;5093733;28;20599;-78
2021/07/28 01:53:44;;;;;;;21.23;10.90;;;;;;;15.48;100.00;93663.59;5081448;28;20706;-79
2021/07/28 01:56:15;;;;;;;19.58;10.95;;;;;;;15.47;100.00;93650.69;5093368;28;20209;-80
2021/07/28 01:58:52;;;;;;;21.75;11.70;;;;;;;15.36;100.00;93660.22;5094013;28;20198;-78
2021/07/28 02:01:19;;;;;;;19.13;10.40;;;;;;;15.31;100.00;93670.63;5093911;28;20297;-78
2021/07/28 02:03:47;;;;;;;23.00;12.40;;;;;;;15.27;100.00;93664.22;5093783;28;20202;-78
2021/07/28 02:06:14;;;;;;;21.70;12.00;;;;;;;15.23;100.00;93666.53;5093625;28;20198;-77
2021/07/28 02:08:40;;;;;;;22.75;11.75;;;;;;;15.17;100.00;93668.25;5093016;28;20555;-78
2021/07/28 02:11:07;;;;;;;27.13;11.60;;;;;;;15.16;100.00;93666.66;5093832;28;20208;-78
2021/07/28 02:13:33;;;;;;;19.77;11.15;;;;;;;15.08;100.00;93659.13;5093654;28;20230;-79
2021/07/28 02:16:01;;;;;;;24.90;12.48;;;;;;;15.05;100.00;93654.31;5093617;28;20198;-78
2021/07/28 02:18:27;;;;;;;19.48;11.50;;;;;;;14.99;100.00;93663.94;5093630;28;20209;-78
2021/07/28 02:20:54;;;;;;;22.67;11.48;;;;;;;14.97;100.00;93670.44;5093381;28;20201;-77
2021/07/28 02:23:20;;;;;;;24.05;11.60;;;;;;;14.97;100.00;93668.63;5093523;28;20213;-78
2021/07/28 02:25:47;;;;;;;22.48;12.20;;;;;;;14.97;100.00;93666.00;5093511;28;20204;-78
2021/07/28 02:28:13;;;;;;;26.67;12.48;;;;;;;14.99;100.00;93642.09;5093413;28;20198;-78
2021/07/28 02:30:39;;;;;;;26.52;13.20;;;;;;;15.02;100.00;93641.66;5092614;28;20440;-78
2021/07/28 02:33:07;;;;;;;22.45;12.60;;;;;;;15.05;100.00;93637.75;5093104;28;20229;-79
2021/07/28 02:35:34;;;;;;;32.55;12.93;;;;;;;15.06;100.00;93645.41;5092881;28;20226;-77
2021/07/28 02:38:00;;;;;;;25.30;12.95;;;;;;;15.06;100.00;93650.66;5093409;28;20217;-79
2021/07/28 02:40:27;;;;;;;28.20;12.98;;;;;;;15.06;100.00;93657.75;5093328;28;20198;-78
2021/07/28 02:42:53;;;;;;;27.17;13.52;;;;;;;15.04;100.00;93665.88;5093194;28;20213;-78
2021/07/28 02:45:20;;;;;;;24.15;11.63;;;;;;;15.06;100.00;93676.16;5093158;28;20201;-78
2021/07/28 02:47:46;;;;;;;25.90;12.00;;;;;;;14.98;100.00;93664.16;5093023;28;20198;-79
2021/07/28 02:50:14;;;;;;;21.45;12.00;;;;;;;14.96;100.00;93651.25;5093057;28;20198;-78
2021/07/28 02:52:41;;;;;;;24.58;10.73;;;;;;;14.97;100.00;93652.03;5093002;28;20556;-79
2021/07/28 02:55:08;;;;;;;24.92;11.52;;;;;;;14.98;100.00;93643.13;5093157;28;20210;-78
2021/07/28 02:57:36;;;;;;;23.83;11.80;;;;;;;14.96;100.00;93650.44;5092912;28;20201;-78
2021/07/28 03:00:04;;;;;;;26.55;12.15;;;;;;;14.96;100.00;93645.19;5092924;28;20198;-78
2021/07/28 03:02:30;;;;;;;22.02;12.32;;;;;;;14.94;100.00;93642.78;5092917;28;20568;-78
2021/07/28 03:04:57;;;;;;;23.30;11.98;;;;;;;14.97;100.00;93631.00;5092787;28;20201;-79
2021/07/28 03:07:25;;;;;;;20.95;12.23;;;;;;;14.96;100.00;93624.16;5093031;28;20210;-79
2021/07/28 03:09:51;;;;;;;20.73;11.32;;;;;;;14.94;100.00;93631.50;5093065;28;20649;-79
2021/07/28 03:12:18;;;;;;;23.35;11.95;;;;;;;14.92;100.00;93623.84;5092866;28;20198;-79
2021/07/28 03:14:44;;;;;;;20.88;11.50;;;;;;;14.93;100.00;93630.66;5092753;28;20202;-78
2021/07/28 03:17:11;;;;;;;21.25;11.27;;;;;;;14.91;100.00;93638.00;5092640;28;20201;-78
2021/07/28 03:19:37;;;;;;;21.10;11.00;;;;;;;14.89;100.00;93639.25;5092871;28;20229;-78
2021/07/28 03:22:04;;;;;;;23.02;11.85;;;;;;;14.90;100.00;93646.09;5093185;28;20206;-78
2021/07/28 03:24:32;;;;;;;23.67;11.80;;;;;;;14.89;100.00;93647.13;5092848;28;20202;-79
2021/07/28 03:26:58;;;;;;;20.35;11.45;;;;;;;14.86;100.00;93650.25;5092801;28;20209;-79
2021/07/28 03:29:25;;;;;;;29.13;11.77;;;;;;;14.86;100.00;93655.50;5092831;28;20550;-79
2021/07/28 03:31:51;;;;;;;22.58;11.30;;;;;;;14.86;100.00;93660.75;5092572;28;20676;-79
2021/07/28 03:34:18;;;;;;;21.90;11.63;;;;;;;14.85;100.00;93665.19;5092545;28;20234;-79
2021/07/28 03:36:44;;;;;;;22.27;11.52;;;;;;;14.87;100.00;93660.53;5092796;28;20569;-79
2021/07/28 03:39:11;;;;;;;23.70;11.88;;;;;;;14.85;100.00;93654.69;5092510;28;20294;-79
2021/07/28 03:41:38;;;;;;;22.88;10.95;;;;;;;14.85;100.00;93659.13;5094111;28;20672;-80
2021/07/28 03:44:06;;;;;;;24.25;11.52;;;;;;;14.83;100.00;93672.50;5096414;28;20205;-78
2021/07/28 03:46:32;;;;;;;19.15;11.13;;;;;;;14.84;100.00;93660.97;5096326;28;20205;-78
2021/07/28 03:48:58;;;;;;;19.98;10.40;;;;;;;14.82;100.00;93652.50;5096382;28;20623;-78
2021/07/28 03:51:25;;;;;;;18.63;10.75;;;;;;;14.83;100.00;93646.22;5096158;28;20657;-79
2021/07/28 03:53:51;;;;;;;28.48;11.85;;;;;;;14.81;100.00;93645.66;5096236;28;20221;-78
2021/07/28 03:56:22;;;;;;;19.88;11.57;;;;;;;14.80;100.00;93647.50;5096062;28;20202;-79
2021/07/28 03:58:51;;;;;;;22.42;11.68;;;;;;;14.83;100.00;93638.34;5095442;28;20591;-78
2021/07/28 04:01:18;;;;;;;25.23;13.88;;;;;;;14.85;100.00;93649.41;5094999;28;20436;-80
2021/07/28 04:03:44;;;;;;;28.20;11.98;;;;;;;14.80;100.00;93652.75;5095941;28;20774;-79
2021/07/28 04:06:11;;;;;;;23.33;11.50;;;;;;;14.76;100.00;93661.31;5096265;28;20193;-79
2021/07/28 04:08:37;;;;;;;17.98;10.35;;;;;;;14.77;100.00;93657.66;5096238;28;20566;-81
2021/07/28 04:11:04;;;;;;;20.02;10.18;;;;;;;14.80;100.00;93667.72;5096106;28;20208;-78
2021/07/28 04:13:30;;;;;;;23.88;11.07;;;;;;;14.85;100.00;93656.50;5095643;28;20225;-78
2021/07/28 04:15:58;;;;;;;19.77;11.02;;;;;;;14.89;100.00;93657.63;5096007;28;20195;-80
2021/07/28 04:18:24;;;;;;;21.75;11.07;;;;;;;14.84;100.00;93652.28;5095908;28;20205;-78
2021/07/28 04:20:51;;;;;;;22.75;11.20;;;;;;;14.86;100.00;93653.66;5095903;28;20198;-78
2021/07/28 04:23:17;;;;;;;20.50;11.05;;;;;;;14.90;100.00;93646.91;5095651;28;20202;-77
2021/07/28 04:25:44;;;;;;;19.40;10.18;;;;;;;14.91;100.00;93635.38;5095671;28;20209;-78
2021/07/28 04:28:10;;;;;;;22.75;10.40;;;;;;;14.91;100.00;93642.47;5095940;28;20540;-78
2021/07/28 04:30:37;;;;;;;25.17;11.07;;;;;;;14.86;100.00;93644.97;5095723;28;20202;-78
2021/07/28 04:33:05;;;;;;;18.90;10.32;;;;;;;14.84;100.00;93641.75;5095555;28;20205;-76
2021/07/28 04:35:31;;;;;;;17.70;9.50;;;;;;;14.84;100.00;93639.13;5095365;28;20238;-77
2021/07/28 04:37:57;;;;;;;19.42;9.60;;;;;;;14.88;100.00;93622.69;5095448;28;20198;-77
2021/07/28 04:40:24;;;;;;;17.23;10.02;;;;;;;14.92;100.00;93629.09;5095527;28;20209;-79
2021/07/28 04:42:50;;;;;;;20.20;10.43;;;;;;;14.91;100.00;93643.25;5095225;28;20665;-79
2021/07/28 04:45:18;;;;;;;19.70;10.38;;;;;;;14.91;100.00;93645.09;5095525;28;20568;-79
2021/07/28 04:47:44;;;;;;;16.35;9.40;;;;;;;14.93;100.00;93656.16;5095102;28;20556;-78
2021/07/28 04:50:13;;;;;;;20.25;10.88;;;;;;;14.92;100.00;93665.88;5095150;28;20204;-78
2021/07/28 04:52:39;;;;;;;25.52;10.63;;;;;;;14.93;100.00;93677.19;5094622;28;20204;-78
2021/07/28 04:55:06;;;;;;;19.67;9.57;;;;;;;14.92;100.00;93679.03;5094908;28;20232;-79
2021/07/28 04:57:33;;;;;;;22.50;10.30;;;;;;;14.92;100.00;93670.31;5095560;28;20206;-80
2021/07/28 04:59:59;;;;;;;20.27;10.48;;;;;;;14.93;100.00;93680.63;5095078;28;20205;-79
2021/07/28 05:02:26;;;;;;;18.73;9.75;;;;;;;14.99;100.00;93677.06;5095226;28;20202;-79
2021/07/28 05:04:53;;;;;;;20.33;10.52;;;;;;;15.00;100.00;93685.75;5095106;28;20198;-79
2021/07/28 05:07:21;;;;;;;17.73;10.02;;;;;;;15.06;100.00;93691.94;5094923;28;20221;-80
2021/07/28 05:09:47;;;;;;;16.48;9.98;;;;;;;15.05;100.00;93687.69;5094667;28;20688;-79
2021/07/28 05:12:14;;;;;;;15.82;8.95;;;;;;;15.05;100.00;93691.13;5095099;28;20696;-78
2021/07/28 05:14:40;;;;;;;13.13;8.10;;;;;;;15.06;100.00;93695.38;5094825;28;20236;-79
2021/07/28 05:17:07;;;;;;;14.32;8.02;;;;;;;14.95;100.00;93691.72;5094955;28;20210;-79
2021/07/28 05:19:33;;;;;;;17.23;8.27;;;;;;;14.97;100.00;93697.56;5094479;28;20653;-80
2021/07/28 05:22:00;;;;;;;17.83;8.00;;;;;;;14.99;100.00;93697.31;5094650;28;20194;-78
2021/07/28 05:24:27;;;;;;;14.63;8.13;;;;;;;15.09;100.00;93692.28;5094314;28;20194;-79
2021/07/28 05:26:54;;;;;;;14.75;8.73;;;;;;;15.08;100.00;93690.66;5094382;28;20557;-78
2021/07/28 05:29:20;;;;;;;16.08;7.90;;;;;;;15.09;100.00;93689.66;5094556;28;20229;-78
2021/07/28 05:31:47;;;;;;;15.48;8.48;;;;;;;15.13;100.00;93682.88;5093454;28;20847;-79
2021/07/28 05:34:13;;;;;;;13.48;7.90;;;;;;;15.08;100.00;93688.03;5093984;28;20222;-81
2021/07/28 05:36:40;;;;;;;13.65;7.45;;;;;;;15.11;100.00;93658.66;5094194;28;20205;-79
2021/07/28 05:39:06;;;;;;;14.05;8.00;;;;;;;15.14;100.00;93626.66;5094244;28;20660;-78
2021/07/28 05:41:34;;;;;;;14.55;7.80;;;;;;;15.29;100.00;93641.94;5094091;28;20557;-79
2021/07/28 05:44:06;;;;;;;17.00;8.13;;;;;;;15.38;100.00;93659.97;5094177;28;20205;-79
2021/07/28 05:46:33;;;;;;;11.15;6.68;;;;;;;15.50;100.00;93669.44;5094108;28;20236;-79
2021/07/28 05:48:59;;;;;;;14.20;7.20;;;;;;;15.60;100.00;93673.28;5093964;28;20209;-79
2021/07/28 05:51:25;;;;;;;10.55;6.15;;;;;;;15.82;100.00;93684.00;5093862;28;20520;-79
2021/07/28 05:53:52;;;;;;;15.82;7.00;;;;;;;15.96;100.00;93674.00;5093741;28;20218;-79
2021/07/28 05:56:18;;;;;;;11.07;6.40;;;;;;;15.88;100.00;93678.59;5093796;28;20202;-79
2021/07/28 05:58:46;;;;;;;10.18;6.22;;;;;;;15.84;100.00;93688.00;5093449;28;20195;-79
2021/07/28 06:01:12;;;;;;;12.73;6.40;;;;;;;15.80;100.00;93697.41;5093940;28;20214;-80
2021/07/28 06:03:39;;;;;;;9.23;6.00;;;;;;;15.66;100.00;93698.69;5093807;28;20194;-79
2021/07/28 06:06:05;;;;;;;11.02;6.55;;;;;;;15.68;100.00;93693.97;5092725;28;20198;-79
2021/07/28 06:08:32;;;;;;;10.60;6.10;;;;;;;15.86;100.00;93685.94;5093826;28;20209;-78
2021/07/28 06:10:58;;;;;;;13.57;6.78;;;;;;;16.14;100.00;93686.97;5093913;28;20206;-79
2021/07/28 06:13:24;;;;;;;11.60;6.68;;;;;;;16.28;100.00;93682.19;5093607;28;20206;-78
2021/07/28 06:15:53;;;;;;;10.20;6.13;;;;;;;16.47;100.00;93690.69;5093327;28;20953;-79
2021/07/28 06:18:19;;;;;;;12.02;5.97;;;;;;;16.49;100.00;93693.88;5093539;28;20209;-78
2021/07/28 06:20:46;;;;;;;10.18;5.47;;;;;;;16.56;100.00;93697.16;5093395;28;20209;-79
2021/07/28 06:23:12;;;;;;;10.43;5.25;;;;;;;16.28;100.00;93704.06;5093598;28;20195;-80
2021/07/28 06:25:38;;;;;;;15.90;6.05;;;;;;;16.09;100.00;93700.84;5093529;28;20560;-78
2021/07/28 06:28:05;;;;;;;11.30;6.20;;;;;;;15.89;100.00;93690.72;5093286;28;20205;-78
2021/07/28 06:30:32;;;;;;;11.32;6.63;;;;;;;15.85;100.00;93694.88;5093278;28;20288;-77
2021/07/28 06:33:03;;;;;;;14.88;6.57;;;;;;;15.76;100.00;93701.53;5093416;28;20234;-80
2021/07/28 06:35:29;;;;;;;11.48;6.43;;;;;;;15.73;100.00;93707.25;5092894;28;20256;-78
2021/07/28 06:37:56;;;;;;;12.52;6.65;;;;;;;15.66;100.00;93706.59;5093340;28;20409;-79
2021/07/28 06:40:24;;;;;;;10.25;5.85;;;;;;;15.59;100.00;93711.97;5093278;28;20645;-78
2021/07/28 06:42:51;;;;;;;16.52;6.28;;;;;;;15.42;100.00;93706.66;5093338;28;20282;-78
2021/07/28 06:45:17;;;;;;;9.55;5.40;;;;;;;15.39;100.00;93704.47;5093103;28;20193;-79
2021/07/28 06:47:44;;;;;;;9.55;5.72;;;;;;;15.29;100.00;93701.63;5092900;28;20198;-79
2021/07/28 06:50:20;;;;;;;6.70;5.05;;;;;;;15.28;100.00;93702.66;5093313;28;20198;-78
2021/07/28 06:52:47;;;;;;;7.85;4.80;;;;;;;15.11;100.00;93713.88;5093258;28;20682;-79
2021/07/28 06:55:13;;;;;;;9.40;5.22;;;;;;;14.98;100.00;93725.41;5092693;28;20316;-78
2021/07/28 06:57:40;;;;;;;9.10;4.82;;;;;;;14.97;100.00;93728.28;5093015;28;20198;-78
2021/07/28 07:00:12;;;;;;;8.13;4.78;;;;;;;14.97;100.00;93731.72;5092873;28;20202;-78
2021/07/28 07:02:41;;;;;;;8.73;5.10;;;;;;;15.01;100.00;93732.06;5092053;28;20436;-77
2021/07/28 07:05:10;;;;;;;7.75;4.15;;;;;;;15.02;100.00;93743.38;5092826;28;20198;-79
2021/07/28 07:07:40;;;;;;;6.32;4.00;;;;;;;14.93;100.00;93732.41;5093083;28;20210;-79
2021/07/28 07:10:10;;;;;;;8.82;4.07;;;;;;;14.95;100.00;93746.13;5092827;28;20246;-79
2021/07/28 07:12:39;;;;;;;8.13;3.47;;;;;;;14.95;100.00;93764.50;5092931;28;20206;-79
2021/07/28 07:15:09;;;;;;;7.55;3.80;;;;;;;14.94;100.00;93768.97;5092865;28;20261;-79
2021/07/28 07:17:36;;;;;;;5.45;3.55;;;;;;;14.86;100.00;93771.94;5096362;28;20280;-78
2021/07/28 07:20:04;;;;;;;5.28;3.55;;;;;;;14.91;100.00;93772.06;5096953;28;20194;-79
2021/07/28 07:22:30;;;;;;;8.48;3.35;;;;;;;14.98;100.00;93777.22;5096918;28;20210;-78
2021/07/28 07:25:02;;;;;;;7.40;3.53;;;;;;;14.92;100.00;93768.41;5096850;28;20553;-80
2021/07/28 07:27:37;;;;;;;6.53;3.13;;;;;;;14.82;100.00;93770.78;5096900;28;20197;-78
2021/07/28 07:30:05;;;;;;;4.68;3.03;;;;;;;14.75;100.00;93770.88;5096603;28;20675;-79
2021/07/28 07:32:31;;;;;;;5.80;3.47;;;;;;;14.78;100.00;93769.66;5096612;28;20526;-78
2021/07/28 07:34:59;;;;;;;8.30;3.80;;;;;;;14.73;100.00;93777.41;5096453;28;20237;-77
2021/07/28 07:37:26;;;;;;;6.13;3.20;;;;;;;14.69;100.00;93782.31;5096598;28;20231;-80
2021/07/28 07:39:52;;;;;;;8.27;3.03;;;;;;;14.65;100.00;93781.16;5096347;28;20198;-78
2021/07/28 07:42:20;;;;;;;6.68;2.80;;;;;;;14.65;100.00;93790.88;5096451;28;20194;-78
2021/07/28 07:44:49;;;;;;;6.80;3.30;;;;;;;14.64;100.00;93778.75;5096842;28;20206;-79
2021/07/28 07:47:18;;;;;;;6.00;3.72;;;;;;;14.64;100.00;93779.56;5096123;28;20812;-78
2021/07/28 07:49:50;;;;;;;5.47;3.28;;;;;;;14.63;100.00;93787.69;5096992;28;20204;-77
2021/07/28 07:52:17;;;;;;;7.45;3.20;;;;;;;14.59;100.00;93782.06;5088027;28;20301;-78
2021/07/28 07:54:46;;;;;;;6.28;3.78;;;;;;;14.63;100.00;93772.69;5075793;28;20226;-81
2021/07/28 07:57:13;;;;;;;8.23;3.10;;;;;;;14.64;100.00;93769.06;5076070;28;20199;-80
2021/07/28 07:59:46;;;;;;;6.32;3.25;;;;;;;14.65;100.00;93775.91;5092191;28;20202;-79
2021/07/28 08:02:13;;;;;;;6.15;3.10;;;;;;;14.68;100.00;93779.91;5095941;28;20205;-81
2021/07/28 08:04:42;;;;;;;4.32;2.90;;;;;;;14.72;100.00;93776.63;5095375;28;20672;-76
2021/07/28 08:07:11;;;;;;;5.18;2.75;;;;;;;14.74;100.00;93761.41;5095727;28;20197;-78
2021/07/28 08:09:48;;;;;;;4.75;2.88;;;;;;;14.84;100.00;93754.78;5095905;28;20624;-81
2021/07/28 08:12:14;;;;;;;6.88;2.65;;;;;;;14.86;100.00;93750.13;5095992;28;20193;-80
2021/07/28 08:14:41;;;;;;;5.45;2.63;;;;;;;14.99;100.00;93763.06;5096096;28;20561;-81
2021/07/28 08:17:08;;;;;;;4.57;2.67;;;;;;;14.84;100.00;93762.66;5095724;28;20294;-76
2021/07/28 08:19:42;;;;;;;4.68;2.90;;;;;;;14.89;100.00;93752.28;5095845;28;20532;-80
2021/07/28 08:22:11;;;;;;;5.03;2.97;;;;;;;15.05;100.00;93753.44;5095392;28;20198;-80
2021/07/28 08:24:38;;;;;;;5.40;2.50;;;;;;;15.01;100.00;93747.84;5095611;28;20228;-80
2021/07/28 08:27:05;;;;;;;5.18;2.67;;;;;;;15.15;100.00;93758.91;5095331;28;20202;-78
2021/07/28 08:29:32;;;;;;;3.92;2.50;;;;;;;15.27;100.00;93756.28;5094764;28;20558;-81
2021/07/28 08:32:02;;;;;;;8.35;2.92;;;;;;;15.28;100.00;93763.16;5094741;28;20527;-78
2021/07/28 08:34:29;;;;;;;5.78;2.42;;;;;;;15.32;100.00;93757.22;5095127;28;20245;-78
2021/07/28 08:36:56;;;;;;;4.18;2.50;;;;;;;15.56;100.00;93756.38;5095506;28;20615;-81
2021/07/28 08:39:22;;;;;;;4.75;2.20;;;;;;;15.62;100.00;93763.34;5095253;28;20717;-77
2021/07/28 08:41:54;;;;;;;2.85;2.13;;;;;;;15.59;100.00;93769.06;5095267;28;20208;-77
2021/07/28 08:44:21;;;;;;;3.90;2.42;;;;;;;15.88;100.00;93764.69;5095338;28;20198;-81
2021/07/28 08:46:54;;;;;;;5.35;2.55;;;;;;;15.57;100.00;93764.06;5095307;28;20576;-82
2021/07/28 08:49:23;;;;;;;4.78;2.45;;;;;;;15.58;100.00;93756.94;5095372;28;20202;-82
2021/07/28 08:51:54;;;;;;;8.55;2.78;;;;;;;15.28;100.00;93763.94;5095238;28;20229;-80
2021/07/28 08:54:20;;;;;;;5.00;2.60;;;;;;;15.63;100.00;93764.94;5094982;28;20236;-80
2021/07/28 08:56:48;;;;;;;4.88;2.72;;;;;;;15.69;100.00;93770.09;5094896;28;20225;-80
2021/07/28 08:59:25;;;;;;;4.70;2.35;;;;;;;15.56;100.00;93770.34;5095395;28;20197;-82
2021/07/28 09:01:52;;;;;;;4.35;2.38;;;;;;;15.81;100.00;93772.72;5095047;28;20205;-80
2021/07/28 09:04:19;;;;;;;4.82;2.65;;;;;;;16.01;100.00;93774.94;5094755;28;20206;-80
2021/07/28 09:06:46;;;;;;;4.70;2.65;;;;;;;15.79;100.00;93774.78;5094871;28;20202;-79
2021/07/28 09:09:14;;;;;;;6.45;2.58;;;;;;;16.07;100.00;93781.09;5095089;28;20201;-79
2021/07/28 09:11:54;;;;;;;6.40;2.83;;;;;;;16.33;100.00;93779.75;5094840;28;20202;-79
2021/07/28 09:14:23;;;;;;;4.28;2.65;;;;;;;16.17;100.00;93775.25;5094992;28;20198;-80
2021/07/28 09:16:52;;;;;;;4.47;2.65;;;;;;;16.48;100.00;93773.19;5092015;28;20506;-78
2021/07/28 09:19:40;;;;;;;3.60;2.25;;;;;;;16.36;100.00;93767.97;5094579;28;20198;-78
2021/07/28 09:22:08;;;;;;;4.05;2.67;;;;;;;16.59;100.00;93767.84;5094376;28;20198;-79
2021/07/28 09:24:36;;;;;;;3.92;2.28;;;;;;;16.81;100.00;93767.13;5094550;28;20202;-78
2021/07/28 09:27:06;;;;;;;4.28;2.22;;;;;;;17.01;100.00;93775.41;5094594;28;20208;-79
2021/07/28 09:29:39;;;;;;;2.88;1.98;;;;;;;16.96;100.00;93767.41;5094306;28;20247;-80
2021/07/28 09:32:08;;;;;;;3.08;2.10;;;;;;;17.45;100.00;93779.19;5094527;28;20198;-79
2021/07/28 09:34:38;;;;;;;3.55;2.30;;;;;;;17.52;100.00;93779.81;5094036;28;20318;-81
2021/07/28 09:37:13;;;;;;;3.88;2.45;;;;;;;17.56;100.00;93780.94;5094421;28;20194;-81
2021/07/28 09:39:47;;;;;;;4.07;2.38;;;;;;;17.46;100.00;93783.44;5094274;28;20198;-81
2021/07/28 09:42:18;;;;;;;4.63;2.38;;;;;;;18.19;100.00;93785.97;5094476;28;20233;-80
2021/07/28 09:44:46;;;;;;;4.30;2.22;;;;;;;18.35;100.00;93789.56;5094082;28;20583;-79
2021/07/28 09:47:19;;;;;;;5.65;2.25;;;;;;;18.05;100.00;93789.00;5094320;28;20322;-79
2021/07/28 09:49:47;;;;;;;5.32;2.38;;;;;;;17.89;100.00;93795.13;5094228;28;20205;-78
2021/07/28 09:52:18;;;;;;;6.53;2.42;;;;;;;17.55;100.00;93798.63;5093997;28;20255;-79
2021/07/28 09:54:48;;;;;;;3.80;2.50;;;;;;;17.31;100.00;93784.03;5093679;28;20217;-79
2021/07/28 09:57:20;;;;;;;5.38;2.42;;;;;;;17.46;100.00;93780.81;5094180;28;20259;-78
2021/07/28 09:59:50;;;;;;;4.03;2.30;;;;;;;17.33;100.00;93790.66;5094086;28;20202;-78
2021/07/28 10:02:18;;;;;;;3.80;2.30;;;;;;;17.47;100.00;93787.66;5093956;28;20330;-78
2021/07/28 10:04:48;;;;;;;4.75;2.85;;;;;;;17.67;100.00;93782.69;5093238;28;20210;-79
2021/07/28 10:07:17;;;;;;;4.63;2.65;;;;;;;17.69;100.00;93791.16;5093991;28;20208;-79
2021/07/28 10:09:50;;;;;;;3.42;2.20;;;;;;;18.18;100.00;93792.31;5093611;28;20194;-79
2021/07/28 10:12:18;;;;;;;3.78;2.35;;;;;;;18.45;100.00;93787.03;5093602;28;20194;-80
2021/07/28 10:14:46;;;;;;;4.85;2.20;;;;;;;19.16;100.00;93781.59;5093577;28;20247;-79
2021/07/28 10:17:13;;;;;;;5.28;2.22;;;;;;;19.38;100.00;93788.63;5093449;28;20225;-79
2021/07/28 10:19:40;;;;;;;3.30;2.30;;;;;;;19.49;100.00;93790.31;5093423;28;20619;-79
2021/07/28 10:22:07;;;;;;;4.90;1.98;;;;;;;19.37;100.00;93784.41;5093625;28;20280;-79
2021/07/28 10:24:35;;;;;;;3.78;2.22;;;;;;;19.46;100.00;93788.16;5093638;28;20202;-79
2021/07/28 10:27:04;;;;;;;3.92;2.00;;;;;;;19.31;100.00;93785.44;5093468;28;20198;-79
2021/07/28 10:29:31;;;;;;;3.88;2.60;;;;;;;19.04;100.00;93791.59;5093699;28;20202;-79
2021/07/28 10:32:00;;;;;;;3.53;2.30;;;;;;;19.18;100.00;93776.06;5093746;28;20297;-79
2021/07/28 10:34:28;;;;;;;5.47;2.80;;;;;;;19.55;100.00;93781.34;5093129;28;20201;-81
2021/07/28 10:36:58;;;;;;;5.80;2.55;;;;;;;19.85;100.00;93781.78;5093138;28;20321;-80
2021/07/28 10:39:42;;;;;;;6.07;2.45;;;;;;;20.01;100.00;93780.00;5093105;28;20266;-80
2021/07/28 10:42:11;;;;;;;3.72;2.33;;;;;;;20.46;100.00;93778.56;5093173;28;20667;-81
2021/07/28 10:45:00;;;;;;;6.45;2.83;;;;;;;20.95;96.36;93764.06;5093244;28;20201;-80
2021/07/28 10:47:37;;;;;;;4.88;2.30;;;;;;;21.39;96.90;93766.97;5093384;28;20209;-78
2021/07/28 10:50:05;;;;;;;3.15;2.30;;;;;;;21.92;82.36;93760.50;5092977;28;20653;-79
2021/07/28 10:52:41;;;;;;;5.80;2.83;;;;;;;21.90;81.66;93765.25;5092624;28;20202;-80
2021/07/28 10:55:25;;;;;;;4.55;2.25;;;;;;;21.76;86.37;93765.84;5092831;28;20679;-79
2021/07/28 10:58:24;;;;;;;5.78;2.63;;;;;;;21.43;94.83;93761.91;5093012;28;20206;-80
2021/07/28 11:01:02;;;;;;;4.80;2.20;;;;;;;21.27;88.81;93763.78;5093041;28;20209;-81
2021/07/28 11:03:38;;;;;;;5.63;2.78;;;;;;;20.78;88.81;93762.44;5092966;28;20226;-81
2021/07/28 11:06:22;;;;;;;4.85;2.60;;;;;;;20.80;94.14;93760.34;5092853;28;20226;-80
2021/07/28 11:08:49;;;;;;;6.32;3.03;;;;;;;20.50;92.32;93769.00;5093085;28;20202;-80
2021/07/28 11:11:24;;;;;;;5.78;2.92;;;;;;;20.27;96.92;93771.09;5093162;28;20202;-80
2021/07/28 11:13:55;;;;;;;4.30;2.50;;;;;;;20.13;100.00;93767.31;5093089;28;20751;-80
2021/07/28 11:16:24;;;;;;;4.60;2.63;;;;;;;20.52;97.83;93774.88;5092835;28;20226;-80
2021/07/28 11:18:55;;;;;;;4.00;2.47;;;;;;;20.45;98.67;93774.31;5093001;28;20565;-81
2021/07/28 11:21:22;;;;;;;3.38;2.20;;;;;;;20.07;94.81;93766.53;5093007;28;20198;-80
2021/07/28 11:23:55;;;;;;;3.97;2.70;;;;;;;19.71;98.80;93770.84;5092755;28;20407;-80
2021/07/28 11:26:25;;;;;;;4.47;2.88;;;;;;;19.85;100.00;93777.31;5092834;28;20681;-82